createdAt,value
2019-05-11T00:02:16.843Z,8.50
2019-05-11T00:04:47.302Z,8.40
2019-05-11T00:07:17.858Z,8.40
2019-05-11T00:09:57.376Z,8.40
2019-05-11T00:12:20.514Z,8.40
2019-05-11T00:14:50.999Z,8.40
2019-05-11T00:17:21.550Z,8.40
2019-05-11T00:19:52.014Z,8.30
2019-05-11T00:22:22.497Z,8.30
2019-05-11T00:24:52.980Z,8.20
2019-05-11T00:27:23.488Z,8.20
2019-05-11T00:29:53.945Z,8.10
2019-05-11T00:32:24.510Z,8.00
2019-05-11T00:34:54.963Z,8.00
2019-05-11T00:37:25.442Z,7.90
2019-05-11T00:39:55.894Z,7.80
2019-05-11T00:42:26.365Z,7.80
2019-05-11T00:44:56.852Z,7.80
2019-05-11T00:47:27.330Z,7.80
2019-05-11T00:49:57.795Z,7.70
2019-05-11T00:52:28.276Z,7.70
2019-05-11T00:54:58.868Z,7.60
2019-05-11T00:57:29.356Z,7.60
2019-05-11T00:59:59.827Z,7.60
2019-05-11T01:02:30.314Z,7.50
2019-05-11T01:05:00.794Z,7.50
2019-05-11T01:07:31.269Z,7.40
2019-05-11T01:10:01.716Z,7.40
2019-05-11T01:12:32.204Z,7.40
2019-05-11T01:15:02.748Z,7.40
2019-05-11T01:17:33.233Z,7.40
2019-05-11T01:20:05.391Z,7.30
2019-05-11T01:22:35.877Z,7.30
2019-05-11T01:25:07.480Z,7.30
2019-05-11T01:27:37.943Z,7.30
2019-05-11T01:30:09.188Z,7.20
2019-05-11T01:32:39.682Z,7.20
2019-05-11T01:35:10.800Z,7.20
2019-05-11T01:37:41.281Z,7.20
2019-05-11T01:40:12.327Z,7.20
2019-05-11T01:42:42.801Z,7.10
2019-05-11T01:45:13.605Z,7.00
2019-05-11T01:47:44.067Z,7.00
2019-05-11T01:50:14.641Z,7.00
2019-05-11T01:52:45.092Z,7.00
2019-05-11T01:55:15.665Z,6.90
2019-05-11T01:57:46.116Z,6.90
2019-05-11T02:00:16.672Z,6.90
2019-05-11T02:02:47.137Z,6.90
2019-05-11T02:05:30.501Z,6.90
2019-05-11T02:08:02.697Z,7.00
2019-05-11T02:10:33.547Z,6.90
2019-05-11T02:13:03.997Z,6.90
2019-05-11T02:15:34.478Z,6.80
2019-05-11T02:18:05.074Z,6.80
2019-05-11T02:20:35.635Z,6.80
2019-05-11T02:23:06.075Z,6.70
2019-05-11T02:25:36.560Z,6.70
2019-05-11T02:28:08.923Z,6.70
2019-05-11T02:30:39.485Z,6.70
2019-05-11T02:33:10.004Z,6.60
2019-05-11T02:35:41.033Z,6.60
2019-05-11T02:38:11.473Z,6.60
2019-05-11T02:40:41.968Z,6.60
2019-05-11T02:43:12.427Z,6.50
2019-05-11T02:45:43.757Z,6.50
2019-05-11T02:48:14.357Z,6.50
2019-05-11T02:50:45.186Z,6.50
2019-05-11T02:53:16.221Z,6.40
2019-05-11T02:55:48.694Z,6.40
2019-05-11T02:58:19.324Z,6.40
2019-05-11T03:00:49.830Z,6.40
2019-05-11T03:03:20.320Z,6.40
2019-05-11T03:05:50.798Z,6.40
2019-05-11T03:08:21.269Z,6.40
2019-05-11T03:10:52.394Z,6.40
2019-05-11T03:13:22.883Z,6.40
2019-05-11T03:15:55.719Z,6.40
2019-05-11T03:18:26.208Z,6.40
2019-05-11T03:20:56.710Z,6.40
2019-05-11T03:23:27.177Z,6.50
2019-05-11T03:25:57.690Z,6.40
2019-05-11T03:28:28.184Z,6.50
2019-05-11T03:30:58.662Z,6.50
2019-05-11T03:33:29.160Z,6.50
2019-05-11T03:35:59.649Z,6.50
2019-05-11T03:38:30.139Z,6.50
2019-05-11T03:41:00.595Z,6.50
2019-05-11T03:43:31.099Z,6.50
2019-05-11T03:46:01.580Z,6.50
2019-05-11T03:48:32.078Z,6.50
2019-05-11T03:51:03.135Z,6.60
2019-05-11T03:53:35.324Z,6.60
2019-05-11T03:56:07.335Z,6.60
2019-05-11T03:58:37.839Z,6.60
2019-05-11T04:01:08.362Z,6.70
2019-05-11T04:03:38.842Z,6.70
2019-05-11T04:06:09.297Z,6.80
2019-05-11T04:08:39.790Z,6.80
2019-05-11T04:11:10.236Z,6.90
2019-05-11T04:13:40.720Z,6.90
2019-05-11T04:16:11.203Z,7.00
2019-05-11T04:18:41.699Z,7.00
2019-05-11T04:21:12.167Z,7.00
2019-05-11T04:23:42.663Z,7.00
2019-05-11T04:26:13.137Z,7.00
2019-05-11T04:28:43.622Z,7.00
2019-05-11T04:31:14.070Z,6.90
2019-05-11T04:33:44.559Z,7.00
2019-05-11T04:36:15.061Z,6.90
2019-05-11T04:38:45.507Z,6.90
2019-05-11T04:41:15.992Z,6.90
2019-05-11T04:43:46.469Z,6.90
2019-05-11T04:46:16.963Z,7.00
2019-05-11T04:48:47.454Z,7.00
2019-05-11T04:51:17.940Z,7.10
2019-05-11T04:53:48.415Z,7.10
2019-05-11T04:56:18.921Z,7.10
2019-05-11T04:58:49.382Z,7.20
2019-05-11T05:01:19.948Z,7.30
2019-05-11T05:03:54.280Z,7.30
2019-05-11T05:06:24.532Z,7.30
2019-05-11T05:08:58.099Z,7.30
2019-05-11T05:11:30.717Z,7.40
2019-05-11T05:14:01.901Z,7.50
2019-05-11T05:16:31.649Z,7.60
2019-05-11T05:19:02.247Z,7.70
2019-05-11T05:21:32.709Z,7.90
2019-05-11T05:24:03.279Z,7.90
2019-05-11T05:26:33.734Z,7.90
2019-05-11T05:29:04.228Z,8.00
2019-05-11T05:31:34.723Z,8.00
2019-05-11T05:34:05.407Z,8.10
2019-05-11T05:36:35.870Z,8.20
2019-05-11T05:39:09.177Z,8.20
2019-05-11T05:41:40.030Z,8.20
2019-05-11T05:44:10.495Z,8.20
2019-05-11T05:46:41.149Z,8.20
2019-05-11T05:49:11.633Z,8.20
2019-05-11T05:51:42.171Z,8.20
2019-05-11T05:54:12.735Z,8.20
2019-05-11T05:56:43.275Z,8.30
2019-05-11T05:59:13.794Z,8.40
2019-05-11T06:01:44.230Z,8.50
2019-05-11T06:04:14.732Z,8.40
2019-05-11T06:06:45.188Z,8.50
2019-05-11T06:09:15.671Z,8.50
2019-05-11T06:11:46.152Z,8.60
2019-05-11T06:14:16.629Z,8.60
2019-05-11T06:16:47.089Z,8.70
2019-05-11T06:19:18.851Z,8.70
2019-05-11T06:21:49.312Z,8.60
2019-05-11T06:24:19.804Z,8.50
2019-05-11T06:26:50.309Z,8.40
2019-05-11T06:29:21.805Z,8.50
2019-05-11T06:31:52.669Z,8.70
2019-05-11T06:34:23.166Z,8.70
2019-05-11T06:36:53.817Z,8.80
2019-05-11T06:39:24.335Z,8.80
2019-05-11T06:41:54.782Z,8.80
2019-05-11T06:44:25.265Z,8.80
2019-05-11T06:46:55.752Z,8.80
2019-05-11T06:49:26.278Z,8.80
2019-05-11T06:51:56.756Z,8.90
2019-05-11T06:54:27.235Z,9.00
2019-05-11T06:56:57.805Z,9.10
2019-05-11T06:59:28.250Z,9.20
2019-05-11T07:01:58.803Z,9.20
2019-05-11T07:04:29.285Z,9.30
2019-05-11T07:06:59.795Z,9.50
2019-05-11T07:09:30.258Z,9.60
2019-05-11T07:12:00.894Z,9.80
2019-05-11T07:14:31.771Z,9.90
2019-05-11T07:17:02.310Z,10.00
2019-05-11T07:19:32.824Z,10.20
2019-05-11T07:22:03.320Z,10.30
2019-05-11T07:24:33.879Z,10.40
2019-05-11T07:27:04.359Z,10.60
2019-05-11T07:29:34.853Z,10.80
2019-05-11T07:32:15.290Z,10.90
2019-05-11T07:34:38.398Z,11.00
2019-05-11T07:37:08.946Z,11.10
2019-05-11T07:39:39.493Z,11.20
2019-05-11T07:42:09.968Z,11.30
2019-05-11T07:44:42.052Z,11.40
2019-05-11T07:47:12.766Z,11.50
2019-05-11T07:49:43.270Z,11.70
2019-05-11T07:52:13.957Z,11.80
2019-05-11T07:54:44.450Z,12.00
2019-05-11T07:57:14.919Z,12.10
2019-05-11T07:59:45.418Z,12.20
2019-05-11T08:02:17.779Z,12.40
2019-05-11T08:04:48.280Z,12.50
2019-05-11T08:07:18.772Z,12.60
2019-05-11T08:09:49.225Z,12.80
2019-05-11T08:12:20.517Z,12.90
2019-05-11T08:14:58.852Z,13.10
2019-05-11T08:17:23.219Z,13.20
2019-05-11T08:19:53.691Z,13.40
2019-05-11T08:22:24.190Z,13.50
2019-05-11T08:24:54.689Z,13.70
2019-05-11T08:27:25.167Z,13.80
2019-05-11T08:29:57.865Z,13.80
2019-05-11T08:32:28.732Z,13.80
2019-05-11T08:35:00.054Z,13.90
2019-05-11T08:37:31.673Z,14.00
2019-05-11T08:40:02.149Z,14.20
2019-05-11T08:42:32.639Z,14.40
2019-05-11T08:45:16.191Z,14.50
2019-05-11T08:47:37.576Z,14.70
2019-05-11T08:50:09.864Z,14.80
2019-05-11T08:52:40.339Z,14.90
2019-05-11T08:55:11.039Z,15.00
2019-05-11T08:57:42.683Z,15.10
2019-05-11T09:00:19.540Z,15.20
2019-05-11T09:02:50.993Z,15.30
2019-05-11T09:05:21.784Z,15.50
2019-05-11T09:07:52.250Z,15.50
2019-05-11T09:10:23.414Z,15.60
2019-05-11T09:12:53.872Z,15.90
2019-05-11T09:15:34.818Z,16.00
2019-05-11T09:17:57.749Z,16.20
2019-05-11T09:20:28.657Z,16.40
2019-05-11T09:23:00.306Z,16.50
2019-05-11T09:25:30.796Z,16.60
2019-05-11T09:28:01.264Z,16.70
2019-05-11T09:30:31.819Z,16.80
2019-05-11T09:33:02.283Z,16.90
2019-05-11T09:35:46.789Z,17.00
2019-05-11T09:38:05.161Z,17.00
2019-05-11T09:40:35.664Z,17.00
2019-05-11T09:43:08.297Z,17.10
2019-05-11T09:45:48.339Z,17.20
2019-05-11T09:48:14.003Z,17.20
2019-05-11T09:50:44.493Z,17.30
2019-05-11T09:53:14.952Z,17.50
2019-05-11T09:55:47.964Z,17.70
2019-05-11T09:58:19.656Z,17.90
2019-05-11T10:00:50.661Z,18.10
2019-05-11T10:03:21.158Z,18.40
2019-05-11T10:05:52.070Z,18.60
2019-05-11T10:08:22.643Z,18.80
2019-05-11T10:10:53.137Z,19.10
2019-05-11T10:13:23.592Z,19.20
2019-05-11T10:16:04.543Z,19.10
2019-05-11T10:18:28.207Z,19.50
2019-05-11T10:21:00.837Z,19.90
2019-05-11T10:23:32.167Z,20.30
2019-05-11T10:26:02.624Z,20.80
2019-05-11T10:28:33.118Z,21.10
2019-05-11T10:31:05.477Z,21.00
2019-05-11T10:33:38.073Z,20.70
2019-05-11T10:36:08.961Z,20.40
2019-05-11T10:38:39.427Z,20.10
2019-05-11T10:41:11.552Z,19.80
2019-05-11T10:43:42.009Z,19.70
2019-05-11T10:46:19.542Z,19.60
2019-05-11T10:48:44.678Z,19.50
2019-05-11T10:51:15.178Z,19.40
2019-05-11T10:53:48.468Z,19.70
2019-05-11T10:56:18.110Z,20.30
2019-05-11T10:58:49.438Z,20.90
2019-05-11T11:01:21.109Z,21.50
2019-05-11T11:03:51.648Z,22.20
2019-05-11T11:06:23.038Z,22.60
2019-05-11T11:08:54.459Z,22.90
2019-05-11T11:11:27.748Z,23.00
2019-05-11T11:13:58.605Z,22.90
2019-05-11T11:16:36.918Z,22.50
2019-05-11T11:19:01.287Z,22.70
2019-05-11T11:21:31.774Z,23.10
2019-05-11T11:24:02.240Z,23.70
2019-05-11T11:26:32.724Z,24.20
2019-05-11T11:29:03.189Z,24.20
2019-05-11T11:31:33.671Z,24.70
2019-05-11T11:34:04.389Z,24.70
2019-05-11T11:36:34.873Z,24.60
2019-05-11T11:39:08.511Z,24.60
2019-05-11T11:41:40.751Z,24.50
2019-05-11T11:44:11.266Z,24.30
2019-05-11T11:46:53.858Z,23.70
2019-05-11T11:49:13.949Z,23.30
2019-05-11T11:51:44.413Z,22.80
2019-05-11T11:54:18.852Z,22.50
2019-05-11T11:56:49.343Z,22.50
2019-05-11T11:59:19.803Z,22.60
2019-05-11T12:01:50.310Z,22.80
2019-05-11T12:04:22.177Z,23.50
2019-05-11T12:06:53.776Z,23.80
2019-05-11T12:09:24.907Z,23.40
2019-05-11T12:11:57.862Z,23.10
2019-05-11T12:14:28.336Z,23.20
2019-05-11T12:17:07.518Z,23.00
2019-05-11T12:19:31.190Z,22.70
2019-05-11T12:22:01.696Z,22.50
2019-05-11T12:24:32.167Z,22.30
2019-05-11T12:27:02.662Z,22.00
2019-05-11T12:29:34.704Z,21.60
2019-05-11T12:32:08.179Z,21.00
2019-05-11T12:34:38.852Z,20.60
2019-05-11T12:37:09.325Z,21.00
2019-05-11T12:39:43.727Z,21.50
2019-05-11T12:42:14.355Z,21.70
2019-05-11T12:44:44.864Z,21.50
2019-05-11T12:47:24.140Z,21.50
2019-05-11T12:49:50.928Z,21.60
2019-05-11T12:52:23.317Z,21.90
2019-05-11T12:54:53.793Z,22.40
2019-05-11T12:57:24.260Z,22.30
2019-05-11T12:59:58.090Z,22.10
2019-05-11T13:02:28.109Z,22.20
2019-05-11T13:04:58.614Z,22.00
2019-05-11T13:07:29.135Z,21.20
2019-05-11T13:09:59.636Z,20.90
2019-05-11T13:12:30.104Z,20.70
2019-05-11T13:15:01.076Z,20.80
2019-05-11T13:17:36.998Z,20.80
2019-05-11T13:20:05.011Z,20.80
2019-05-11T13:22:37.962Z,20.80
2019-05-11T13:25:08.715Z,20.80
2019-05-11T13:27:40.622Z,20.90
2019-05-11T13:30:12.965Z,20.90
2019-05-11T13:32:43.462Z,20.90
2019-05-11T13:35:14.080Z,20.80
2019-05-11T13:37:44.579Z,20.70
2019-05-11T13:40:15.135Z,20.60
2019-05-11T13:42:48.720Z,20.50
2019-05-11T13:45:18.645Z,20.40
2019-05-11T13:47:55.277Z,20.20
2019-05-11T13:50:21.292Z,20.10
2019-05-11T13:52:51.827Z,20.00
2019-05-11T13:55:22.322Z,19.90
2019-05-11T13:57:54.332Z,19.80
2019-05-11T14:00:24.915Z,19.60
2019-05-11T14:02:58.622Z,19.60
2019-05-11T14:05:29.198Z,19.50
2019-05-11T14:07:59.670Z,19.50
2019-05-11T14:10:30.179Z,19.50
2019-05-11T14:13:00.649Z,19.50
2019-05-11T14:15:31.145Z,19.70
2019-05-11T14:18:08.227Z,19.80
2019-05-11T14:20:33.850Z,20.00
2019-05-11T14:23:04.633Z,20.10
2019-05-11T14:25:35.119Z,20.30
2019-05-11T14:28:08.807Z,20.40
2019-05-11T14:30:40.640Z,20.40
2019-05-11T14:33:11.212Z,20.30
2019-05-11T14:35:41.697Z,20.30
2019-05-11T14:38:12.187Z,20.10
2019-05-11T14:40:42.669Z,19.90
2019-05-11T14:43:13.158Z,19.80
2019-05-11T14:45:43.667Z,19.80
2019-05-11T14:48:25.921Z,19.80
2019-05-11T14:50:48.739Z,19.70
2019-05-11T14:53:18.614Z,19.60
2019-05-11T14:55:49.098Z,19.50
2019-05-11T14:58:20.104Z,19.50
2019-05-11T15:00:50.799Z,19.50
2019-05-11T15:03:21.261Z,19.50
2019-05-11T15:05:53.877Z,19.60
2019-05-11T15:08:24.380Z,19.80
2019-05-11T15:10:54.844Z,20.00
2019-05-11T15:13:28.821Z,20.10
2019-05-11T15:15:59.078Z,20.20
2019-05-11T15:18:38.598Z,20.20
2019-05-11T15:21:01.829Z,20.30
2019-05-11T15:23:32.332Z,20.40
2019-05-11T15:26:02.845Z,20.10
2019-05-11T15:28:33.323Z,20.20
2019-05-11T15:31:03.823Z,20.20
2019-05-11T15:33:34.296Z,20.00
2019-05-11T15:36:04.782Z,19.80
2019-05-11T15:38:37.685Z,19.80
2019-05-11T15:41:08.330Z,19.80
2019-05-11T15:43:38.977Z,19.60
2019-05-11T15:46:09.466Z,19.30
2019-05-11T15:48:55.878Z,19.20
2019-05-11T15:51:12.117Z,19.10
2019-05-11T15:53:42.603Z,19.00
2019-05-11T15:56:13.062Z,19.00
2019-05-11T15:58:43.553Z,19.00
2019-05-11T16:01:15.685Z,18.90
2019-05-11T16:03:49.655Z,18.90
2019-05-11T16:06:18.728Z,18.90
2019-05-11T16:08:49.363Z,18.90
2019-05-11T16:11:19.845Z,18.90
2019-05-11T16:13:50.300Z,18.80
2019-05-11T16:16:20.794Z,18.90
2019-05-11T16:18:51.327Z,18.80
2019-05-11T16:21:21.911Z,18.90
2019-05-11T16:23:52.513Z,18.90
2019-05-11T16:26:23.001Z,18.80
2019-05-11T16:28:53.459Z,18.80
2019-05-11T16:31:23.947Z,18.70
2019-05-11T16:33:54.409Z,18.70
2019-05-11T16:36:24.905Z,18.60
2019-05-11T16:38:55.362Z,18.50
2019-05-11T16:41:25.850Z,18.50
2019-05-11T16:43:58.360Z,18.50
2019-05-11T16:46:28.572Z,18.40
2019-05-11T16:48:59.027Z,18.40
2019-05-11T16:51:29.513Z,18.40
2019-05-11T16:53:59.970Z,18.30
2019-05-11T16:56:30.469Z,18.30
2019-05-11T16:59:02.786Z,18.30
2019-05-11T17:01:33.281Z,18.20
2019-05-11T17:04:03.759Z,18.10
2019-05-11T17:06:34.272Z,18.10
2019-05-11T17:09:08.758Z,18.00
2019-05-11T17:11:38.841Z,17.90
2019-05-11T17:14:09.300Z,17.80
2019-05-11T17:16:39.814Z,17.70
2019-05-11T17:19:10.279Z,17.70
2019-05-11T17:21:40.795Z,17.60
2019-05-11T17:24:11.249Z,17.90
2019-05-11T17:26:41.810Z,17.50
2019-05-11T17:29:12.269Z,17.50
2019-05-11T17:31:44.303Z,17.40
2019-05-11T17:34:17.916Z,17.30
2019-05-11T17:36:48.497Z,17.20
2019-05-11T17:39:19.005Z,17.10
2019-05-11T17:41:49.481Z,17.10
2019-05-11T17:44:19.979Z,17.00
2019-05-11T17:46:50.479Z,17.00
2019-05-11T17:49:20.950Z,16.90
2019-05-11T17:51:52.212Z,16.80
2019-05-11T17:54:22.804Z,16.80
2019-05-11T17:56:53.308Z,16.70
2019-05-11T17:59:23.763Z,16.70
2019-05-11T18:01:57.976Z,16.60
2019-05-11T18:04:27.918Z,16.50
2019-05-11T18:06:58.920Z,16.50
2019-05-11T18:09:29.444Z,16.50
2019-05-11T18:11:59.941Z,16.40
2019-05-11T18:14:30.425Z,16.40
2019-05-11T18:17:01.778Z,16.30
2019-05-11T18:19:33.551Z,16.30
2019-05-11T18:22:05.645Z,16.30
2019-05-11T18:24:38.199Z,16.20
2019-05-11T18:27:08.414Z,16.10
2019-05-11T18:29:38.884Z,16.00
2019-05-11T18:32:09.352Z,16.00
2019-05-11T18:34:39.914Z,15.90
2019-05-11T18:37:10.372Z,15.80
2019-05-11T18:39:40.865Z,15.70
2019-05-11T18:42:11.332Z,15.70
2019-05-11T18:44:41.811Z,15.70
2019-05-11T18:47:12.277Z,15.70
2019-05-11T18:49:42.859Z,15.60
2019-05-11T18:52:13.337Z,15.60
2019-05-11T18:54:47.864Z,15.50
2019-05-11T18:57:18.804Z,15.50
2019-05-11T18:59:49.412Z,15.40
2019-05-11T19:02:19.877Z,15.40
2019-05-11T19:04:50.367Z,15.40
2019-05-11T19:07:20.838Z,15.40
2019-05-11T19:09:51.329Z,15.30
2019-05-11T19:12:21.824Z,15.30
2019-05-11T19:14:52.315Z,15.30
2019-05-11T19:17:22.804Z,15.20
2019-05-11T19:19:57.858Z,15.20
2019-05-11T19:22:28.858Z,15.00
2019-05-11T19:25:01.068Z,15.00
2019-05-11T19:27:31.541Z,15.00
2019-05-11T19:30:02.026Z,14.90
2019-05-11T19:32:32.503Z,14.80
2019-05-11T19:35:02.974Z,14.80
2019-05-11T19:37:34.630Z,14.70
2019-05-11T19:40:08.778Z,14.70
2019-05-11T19:42:53.810Z,14.60
2019-05-11T19:45:24.934Z,14.60
2019-05-11T19:47:57.579Z,14.60
2019-05-11T19:50:27.604Z,14.50
2019-05-11T19:52:58.195Z,14.50
2019-05-11T19:55:28.773Z,14.40
2019-05-11T19:57:59.321Z,14.40
2019-05-11T20:00:29.809Z,14.40
2019-05-11T20:03:00.379Z,14.40
2019-05-11T20:05:30.902Z,14.40
2019-05-11T20:08:01.398Z,14.30
2019-05-11T20:10:31.909Z,14.40
2019-05-11T20:13:04.121Z,14.40
2019-05-11T20:15:34.582Z,14.30
2019-05-11T20:18:05.146Z,14.30
2019-05-11T20:20:37.583Z,14.20
2019-05-11T20:23:07.987Z,14.20
2019-05-11T20:25:38.441Z,14.20
2019-05-11T20:28:10.969Z,14.20
2019-05-11T20:30:41.438Z,14.10
2019-05-11T20:33:11.922Z,14.10
2019-05-11T20:35:42.392Z,14.10
2019-05-11T20:38:12.879Z,14.10
2019-05-11T20:40:45.229Z,14.10
2019-05-11T20:43:15.689Z,14.10
2019-05-11T20:45:48.519Z,14.10
2019-05-11T20:48:18.638Z,14.10
2019-05-11T20:50:49.324Z,14.10
2019-05-11T20:53:19.819Z,14.10
2019-05-11T20:55:50.286Z,14.10
2019-05-11T20:58:20.772Z,14.10
2019-05-11T21:00:51.234Z,14.10
2019-05-11T21:03:21.731Z,14.10
2019-05-11T21:05:52.184Z,14.00
2019-05-11T21:08:22.677Z,14.00
2019-05-11T21:10:53.144Z,14.00
2019-05-11T21:13:23.644Z,14.00
2019-05-11T21:15:54.804Z,14.00
2019-05-11T21:18:25.317Z,14.00
2019-05-11T21:20:57.679Z,14.00
2019-05-11T21:23:29.014Z,14.00
2019-05-11T21:25:59.640Z,14.00
2019-05-11T21:28:31.082Z,14.00
2019-05-11T21:31:03.214Z,14.00
2019-05-11T21:33:33.675Z,13.90
2019-05-11T21:36:04.168Z,13.90
2019-05-11T21:38:34.652Z,13.90
2019-05-11T21:41:05.207Z,13.90
2019-05-11T21:43:37.661Z,13.90
2019-05-11T21:46:08.349Z,13.90
2019-05-11T21:48:38.842Z,13.90
2019-05-11T21:51:09.335Z,13.80
2019-05-11T21:53:39.787Z,13.80
2019-05-11T21:56:10.298Z,13.80
2019-05-11T21:58:40.783Z,13.80
2019-05-11T22:01:11.549Z,13.80
2019-05-11T22:03:43.708Z,13.80
2019-05-11T22:06:14.200Z,13.80
2019-05-11T22:08:44.659Z,13.80
2019-05-11T22:11:18.025Z,13.70
2019-05-11T22:13:48.418Z,13.70
2019-05-11T22:16:19.055Z,13.70
2019-05-11T22:18:49.552Z,13.60
2019-05-11T22:21:21.404Z,13.60
2019-05-11T22:23:53.518Z,13.60
2019-05-11T22:26:23.982Z,13.60
2019-05-11T22:28:54.440Z,13.50
2019-05-11T22:31:24.937Z,13.50
2019-05-11T22:33:55.393Z,13.50
2019-05-11T22:36:28.132Z,13.50
2019-05-11T22:38:58.722Z,13.50
2019-05-11T22:41:29.515Z,13.40
2019-05-11T22:43:59.999Z,13.40
2019-05-11T22:46:30.464Z,13.40
2019-05-11T22:49:00.936Z,13.40
2019-05-11T22:51:31.402Z,13.30
2019-05-11T22:54:01.881Z,13.30
2019-05-11T22:56:32.341Z,13.20
2019-05-11T22:59:02.835Z,13.20
2019-05-11T23:01:33.320Z,13.10
2019-05-11T23:04:03.795Z,13.10
2019-05-11T23:06:34.252Z,13.10
2019-05-11T23:09:07.935Z,13.00
2019-05-11T23:11:38.540Z,13.00
2019-05-11T23:14:10.084Z,13.00
2019-05-11T23:16:40.768Z,12.90
2019-05-11T23:19:11.266Z,13.00
2019-05-11T23:21:42.301Z,12.90
2019-05-11T23:24:12.786Z,12.90
2019-05-11T23:26:43.252Z,12.80
2019-05-11T23:29:15.157Z,12.80
2019-05-11T23:31:47.729Z,12.80
2019-05-11T23:34:17.851Z,12.80
2019-05-11T23:36:48.739Z,12.80
2019-05-11T23:39:19.342Z,12.80
2019-05-11T23:41:51.351Z,12.70
2019-05-11T23:44:21.853Z,12.70
2019-05-11T23:46:53.875Z,12.70
2019-05-11T23:49:25.887Z,12.70
2019-05-11T23:51:56.386Z,12.60
2019-05-11T23:54:27.862Z,12.60
2019-05-11T23:56:58.445Z,12.60
2019-05-11T23:59:28.902Z,12.60
